Rising Sun, Maryland
Current Conditions -  °F | °C
As of 4:55 PM on Friday 19 Dec 2014 (Local Time) from KAPG Reporting Station
Clear Clear  
Wind Chill: 36°   Ceiling: Unl
Heat Index: 41°   Visibility: 7mi
Dew Point: 23°   Wind: 8mph
Humidity: 49%   Direction: 300°WNW
Pressure: 30.15"   Gusts: NA
Location:  39.7°N, 76.06°W
Report Text: KAPG 192155Z 30007KT 7SM SKC 05/M05 A3015
Loading
Personal Weather Stations






























Interactive Weather Map New forecast layout! Learn more

10-Day Weather Forecast

Advertisements
Track Severe Weather on mobile